sensor_id;sensor_type;location;lat;lon;timestamp;P1;durP1;ratioP1;P2;durP2;ratioP2
19301;SDS011;9785;59.362;12.152;2024-03-25T00:00:18;1.30;;;1.20;;
19301;SDS011;9785;59.362;12.152;2024-03-25T00:02:46;4.27;;;1.00;;
19301;SDS011;9785;59.362;12.152;2024-03-25T00:05:13;2.90;;;1.30;;
19301;SDS011;9785;59.362;12.152;2024-03-25T00:07:42;1.97;;;1.03;;
19301;SDS011;9785;59.362;12.152;2024-03-25T00:10:09;2.83;;;1.20;;
19301;SDS011;9785;59.362;12.152;2024-03-25T00:12:36;1.70;;;0.90;;
19301;SDS011;9785;59.362;12.152;2024-03-25T00:15:04;2.50;;;1.43;;
19301;SDS011;9785;59.362;12.152;2024-03-25T00:17:32;2.33;;;1.20;;
19301;SDS011;9785;59.362;12.152;2024-03-25T00:19:59;3.07;;;1.20;;
19301;SDS011;9785;59.362;12.152;2024-03-25T00:22:26;3.60;;;1.20;;
19301;SDS011;9785;59.362;12.152;2024-03-25T00:24:53;5.67;;;1.30;;
19301;SDS011;9785;59.362;12.152;2024-03-25T00:27:20;1.63;;;1.43;;
19301;SDS011;9785;59.362;12.152;2024-03-25T00:29:47;1.30;;;1.00;;
19301;SDS011;9785;59.362;12.152;2024-03-25T00:32:14;1.53;;;0.90;;
19301;SDS011;9785;59.362;12.152;2024-03-25T00:34:43;4.30;;;1.20;;
19301;SDS011;9785;59.362;12.152;2024-03-25T00:37:10;2.70;;;1.10;;
19301;SDS011;9785;59.362;12.152;2024-03-25T00:39:37;1.10;;;1.00;;
19301;SDS011;9785;59.362;12.152;2024-03-25T00:42:04;1.70;;;1.20;;
19301;SDS011;9785;59.362;12.152;2024-03-25T00:44:31;3.27;;;1.10;;
19301;SDS011;9785;59.362;12.152;2024-03-25T00:46:58;2.20;;;1.00;;
19301;SDS011;9785;59.362;12.152;2024-03-25T00:49:25;1.10;;;1.00;;
19301;SDS011;9785;59.362;12.152;2024-03-25T00:51:53;0.90;;;0.90;;
19301;SDS011;9785;59.362;12.152;2024-03-25T00:54:21;2.27;;;1.20;;
19301;SDS011;9785;59.362;12.152;2024-03-25T00:56:48;2.27;;;1.20;;
19301;SDS011;9785;59.362;12.152;2024-03-25T00:59:16;6.00;;;1.10;;
19301;SDS011;9785;59.362;12.152;2024-03-25T01:01:43;4.83;;;1.00;;
19301;SDS011;9785;59.362;12.152;2024-03-25T01:04:10;1.33;;;0.90;;
19301;SDS011;9785;59.362;12.152;2024-03-25T01:06:37;3.90;;;1.00;;
19301;SDS011;9785;59.362;12.152;2024-03-25T01:09:06;2.00;;;1.00;;
19301;SDS011;9785;59.362;12.152;2024-03-25T01:11:33;1.43;;;1.00;;
19301;SDS011;9785;59.362;12.152;2024-03-25T01:14:00;1.53;;;1.00;;
19301;SDS011;9785;59.362;12.152;2024-03-25T01:16:27;2.93;;;1.57;;
19301;SDS011;9785;59.362;12.152;2024-03-25T01:18:54;2.03;;;1.20;;
19301;SDS011;9785;59.362;12.152;2024-03-25T01:21:21;1.57;;;1.10;;
19301;SDS011;9785;59.362;12.152;2024-03-25T01:23:48;2.50;;;1.40;;
19301;SDS011;9785;59.362;12.152;2024-03-25T01:26:16;2.00;;;0.90;;
19301;SDS011;9785;59.362;12.152;2024-03-25T01:28:43;1.67;;;1.57;;
19301;SDS011;9785;59.362;12.152;2024-03-25T01:31:10;4.40;;;1.23;;
19301;SDS011;9785;59.362;12.152;2024-03-25T01:33:37;6.90;;;2.30;;
19301;SDS011;9785;59.362;12.152;2024-03-25T01:36:04;2.80;;;1.50;;
19301;SDS011;9785;59.362;12.152;2024-03-25T01:38:32;1.63;;;1.43;;
19301;SDS011;9785;59.362;12.152;2024-03-25T01:41:06;2.47;;;1.30;;
19301;SDS011;9785;59.362;12.152;2024-03-25T01:43:35;3.33;;;1.20;;
19301;SDS011;9785;59.362;12.152;2024-03-25T01:46:02;8.77;;;2.33;;
19301;SDS011;9785;59.362;12.152;2024-03-25T01:48:30;3.13;;;1.40;;
19301;SDS011;9785;59.362;12.152;2024-03-25T01:50:57;3.77;;;1.30;;
19301;SDS011;9785;59.362;12.152;2024-03-25T01:53:25;3.73;;;1.40;;
19301;SDS011;9785;59.362;12.152;2024-03-25T01:55:53;5.13;;;1.70;;
19301;SDS011;9785;59.362;12.152;2024-03-25T01:58:21;4.97;;;1.80;;
19301;SDS011;9785;59.362;12.152;2024-03-25T02:00:50;6.67;;;1.40;;
19301;SDS011;9785;59.362;12.152;2024-03-25T02:03:17;3.07;;;1.60;;
19301;SDS011;9785;59.362;12.152;2024-03-25T02:05:44;2.50;;;1.30;;
19301;SDS011;9785;59.362;12.152;2024-03-25T02:08:11;4.10;;;1.50;;
19301;SDS011;9785;59.362;12.152;2024-03-25T02:10:38;2.77;;;1.20;;
19301;SDS011;9785;59.362;12.152;2024-03-25T02:13:06;1.50;;;1.40;;
19301;SDS011;9785;59.362;12.152;2024-03-25T02:15:33;2.33;;;1.40;;
19301;SDS011;9785;59.362;12.152;2024-03-25T02:18:02;1.83;;;1.30;;
19301;SDS011;9785;59.362;12.152;2024-03-25T02:20:28;1.87;;;1.30;;
19301;SDS011;9785;59.362;12.152;2024-03-25T02:22:56;2.20;;;1.53;;
19301;SDS011;9785;59.362;12.152;2024-03-25T02:25:22;4.00;;;1.40;;
19301;SDS011;9785;59.362;12.152;2024-03-25T02:27:51;2.80;;;1.73;;
19301;SDS011;9785;59.362;12.152;2024-03-25T02:30:18;5.00;;;1.80;;
19301;SDS011;9785;59.362;12.152;2024-03-25T02:32:45;3.00;;;1.60;;
19301;SDS011;9785;59.362;12.152;2024-03-25T02:35:13;2.93;;;1.30;;
19301;SDS011;9785;59.362;12.152;2024-03-25T02:37:42;4.30;;;1.67;;
19301;SDS011;9785;59.362;12.152;2024-03-25T02:40:09;1.63;;;1.53;;
19301;SDS011;9785;59.362;12.152;2024-03-25T02:42:37;4.07;;;1.83;;
19301;SDS011;9785;59.362;12.152;2024-03-25T02:45:07;5.23;;;2.13;;
19301;SDS011;9785;59.362;12.152;2024-03-25T02:47:35;2.90;;;2.00;;
19301;SDS011;9785;59.362;12.152;2024-03-25T02:50:03;5.23;;;2.00;;
19301;SDS011;9785;59.362;12.152;2024-03-25T02:52:30;4.67;;;1.70;;
19301;SDS011;9785;59.362;12.152;2024-03-25T02:54:57;2.57;;;1.50;;
19301;SDS011;9785;59.362;12.152;2024-03-25T02:57:24;2.67;;;1.87;;
19301;SDS011;9785;59.362;12.152;2024-03-25T02:59:51;6.13;;;2.10;;
19301;SDS011;9785;59.362;12.152;2024-03-25T03:02:20;4.63;;;2.10;;
19301;SDS011;9785;59.362;12.152;2024-03-25T03:04:47;5.70;;;2.20;;
19301;SDS011;9785;59.362;12.152;2024-03-25T03:07:14;6.50;;;2.23;;
19301;SDS011;9785;59.362;12.152;2024-03-25T03:09:41;5.27;;;2.20;;
19301;SDS011;9785;59.362;12.152;2024-03-25T03:12:08;6.33;;;2.07;;
19301;SDS011;9785;59.362;12.152;2024-03-25T03:14:35;3.77;;;1.90;;
19301;SDS011;9785;59.362;12.152;2024-03-25T03:17:02;4.93;;;1.97;;
19301;SDS011;9785;59.362;12.152;2024-03-25T03:19:31;3.60;;;2.10;;
19301;SDS011;9785;59.362;12.152;2024-03-25T03:21:59;4.43;;;1.70;;
19301;SDS011;9785;59.362;12.152;2024-03-25T03:24:25;3.27;;;1.77;;
19301;SDS011;9785;59.362;12.152;2024-03-25T03:26:53;4.27;;;1.73;;
19301;SDS011;9785;59.362;12.152;2024-03-25T03:29:19;2.83;;;1.70;;
19301;SDS011;9785;59.362;12.152;2024-03-25T03:31:47;2.90;;;1.70;;
19301;SDS011;9785;59.362;12.152;2024-03-25T03:34:13;2.53;;;1.80;;
19301;SDS011;9785;59.362;12.152;2024-03-25T03:36:42;3.70;;;1.70;;
19301;SDS011;9785;59.362;12.152;2024-03-25T03:39:09;2.33;;;1.63;;
19301;SDS011;9785;59.362;12.152;2024-03-25T03:41:36;2.00;;;1.70;;
19301;SDS011;9785;59.362;12.152;2024-03-25T03:44:03;5.73;;;1.80;;
19301;SDS011;9785;59.362;12.152;2024-03-25T03:46:30;2.10;;;1.50;;
19301;SDS011;9785;59.362;12.152;2024-03-25T03:48:57;3.27;;;1.47;;
19301;SDS011;9785;59.362;12.152;2024-03-25T03:51:24;2.73;;;1.37;;
19301;SDS011;9785;59.362;12.152;2024-03-25T03:53:52;2.40;;;1.50;;
19301;SDS011;9785;59.362;12.152;2024-03-25T03:56:20;3.73;;;1.30;;
19301;SDS011;9785;59.362;12.152;2024-03-25T03:58:46;2.83;;;1.40;;
19301;SDS011;9785;59.362;12.152;2024-03-25T04:01:14;1.83;;;1.60;;
19301;SDS011;9785;59.362;12.152;2024-03-25T04:03:41;2.90;;;1.50;;
19301;SDS011;9785;59.362;12.152;2024-03-25T04:06:09;5.10;;;2.07;;
19301;SDS011;9785;59.362;12.152;2024-03-25T04:08:36;2.33;;;1.57;;
19301;SDS011;9785;59.362;12.152;2024-03-25T04:11:05;1.80;;;1.43;;
19301;SDS011;9785;59.362;12.152;2024-03-25T04:13:32;1.60;;;1.30;;
19301;SDS011;9785;59.362;12.152;2024-03-25T04:16:00;1.93;;;1.40;;
19301;SDS011;9785;59.362;12.152;2024-03-25T04:18:28;3.63;;;1.30;;
19301;SDS011;9785;59.362;12.152;2024-03-25T04:20:55;4.97;;;1.40;;
19301;SDS011;9785;59.362;12.152;2024-03-25T04:23:22;1.57;;;1.27;;
19301;SDS011;9785;59.362;12.152;2024-03-25T04:25:50;4.17;;;1.67;;
19301;SDS011;9785;59.362;12.152;2024-03-25T04:28:18;2.73;;;1.50;;
19301;SDS011;9785;59.362;12.152;2024-03-25T04:30:51;1.40;;;1.30;;
19301;SDS011;9785;59.362;12.152;2024-03-25T04:33:18;1.50;;;1.10;;
19301;SDS011;9785;59.362;12.152;2024-03-25T04:35:45;1.70;;;1.23;;
19301;SDS011;9785;59.362;12.152;2024-03-25T04:38:12;2.07;;;1.30;;
19301;SDS011;9785;59.362;12.152;2024-03-25T04:40:39;4.63;;;1.40;;
19301;SDS011;9785;59.362;12.152;2024-03-25T04:43:05;2.53;;;1.13;;
19301;SDS011;9785;59.362;12.152;2024-03-25T04:45:33;2.00;;;1.27;;
19301;SDS011;9785;59.362;12.152;2024-03-25T04:48:00;2.70;;;1.30;;
19301;SDS011;9785;59.362;12.152;2024-03-25T04:50:27;3.70;;;1.20;;
19301;SDS011;9785;59.362;12.152;2024-03-25T04:52:53;3.10;;;1.23;;
19301;SDS011;9785;59.362;12.152;2024-03-25T04:55:20;3.40;;;1.23;;
19301;SDS011;9785;59.362;12.152;2024-03-25T04:57:46;2.37;;;1.50;;
19301;SDS011;9785;59.362;12.152;2024-03-25T05:00:13;2.60;;;1.40;;
19301;SDS011;9785;59.362;12.152;2024-03-25T05:02:41;1.83;;;1.20;;
19301;SDS011;9785;59.362;12.152;2024-03-25T05:05:08;1.83;;;1.17;;
19301;SDS011;9785;59.362;12.152;2024-03-25T05:07:34;2.63;;;1.37;;
19301;SDS011;9785;59.362;12.152;2024-03-25T05:10:01;4.63;;;1.20;;
19301;SDS011;9785;59.362;12.152;2024-03-25T05:12:27;4.47;;;1.40;;
19301;SDS011;9785;59.362;12.152;2024-03-25T05:14:54;2.47;;;1.50;;
19301;SDS011;9785;59.362;12.152;2024-03-25T05:17:20;1.70;;;1.60;;
19301;SDS011;9785;59.362;12.152;2024-03-25T05:19:48;2.10;;;1.10;;
19301;SDS011;9785;59.362;12.152;2024-03-25T05:22:15;2.40;;;1.30;;
19301;SDS011;9785;59.362;12.152;2024-03-25T05:24:42;1.40;;;1.27;;
19301;SDS011;9785;59.362;12.152;2024-03-25T05:27:08;2.47;;;1.33;;
19301;SDS011;9785;59.362;12.152;2024-03-25T05:29:35;6.90;;;1.53;;
19301;SDS011;9785;59.362;12.152;2024-03-25T05:32:02;2.37;;;1.37;;
19301;SDS011;9785;59.362;12.152;2024-03-25T05:34:28;1.23;;;1.23;;
19301;SDS011;9785;59.362;12.152;2024-03-25T05:36:57;3.87;;;1.60;;
19301;SDS011;9785;59.362;12.152;2024-03-25T05:39:23;1.70;;;1.27;;
19301;SDS011;9785;59.362;12.152;2024-03-25T05:41:50;1.23;;;1.20;;
19301;SDS011;9785;59.362;12.152;2024-03-25T05:44:17;3.53;;;1.30;;
19301;SDS011;9785;59.362;12.152;2024-03-25T05:46:43;1.50;;;1.20;;
19301;SDS011;9785;59.362;12.152;2024-03-25T05:49:10;2.57;;;1.50;;
19301;SDS011;9785;59.362;12.152;2024-03-25T05:51:36;2.67;;;1.37;;
19301;SDS011;9785;59.362;12.152;2024-03-25T05:54:04;1.47;;;1.37;;
19301;SDS011;9785;59.362;12.152;2024-03-25T05:56:31;1.33;;;1.23;;
19301;SDS011;9785;59.362;12.152;2024-03-25T05:58:57;1.73;;;1.30;;
19301;SDS011;9785;59.362;12.152;2024-03-25T06:01:24;2.03;;;1.77;;
19301;SDS011;9785;59.362;12.152;2024-03-25T06:03:51;2.30;;;1.53;;
19301;SDS011;9785;59.362;12.152;2024-03-25T06:06:17;4.43;;;2.30;;
19301;SDS011;9785;59.362;12.152;2024-03-25T06:08:44;2.13;;;1.70;;
19301;SDS011;9785;59.362;12.152;2024-03-25T06:11:12;2.43;;;1.57;;
19301;SDS011;9785;59.362;12.152;2024-03-25T06:13:38;1.63;;;1.50;;
19301;SDS011;9785;59.362;12.152;2024-03-25T06:16:05;2.37;;;1.70;;
19301;SDS011;9785;59.362;12.152;2024-03-25T06:18:32;2.60;;;1.70;;
19301;SDS011;9785;59.362;12.152;2024-03-25T06:20:58;3.53;;;1.50;;
19301;SDS011;9785;59.362;12.152;2024-03-25T06:23:25;4.23;;;1.50;;
19301;SDS011;9785;59.362;12.152;2024-03-25T06:25:52;1.53;;;1.27;;
19301;SDS011;9785;59.362;12.152;2024-03-25T06:28:20;2.53;;;2.20;;
19301;SDS011;9785;59.362;12.152;2024-03-25T06:30:47;8.00;;;3.30;;
19301;SDS011;9785;59.362;12.152;2024-03-25T06:33:32;7.43;;;2.57;;
19301;SDS011;9785;59.362;12.152;2024-03-25T06:36:18;3.57;;;1.80;;
19301;SDS011;9785;59.362;12.152;2024-03-25T06:38:44;4.80;;;2.10;;
19301;SDS011;9785;59.362;12.152;2024-03-25T06:41:12;2.40;;;2.07;;
19301;SDS011;9785;59.362;12.152;2024-03-25T06:43:40;2.10;;;1.77;;
19301;SDS011;9785;59.362;12.152;2024-03-25T06:46:07;13.83;;;5.40;;
19301;SDS011;9785;59.362;12.152;2024-03-25T06:48:33;7.97;;;4.00;;
19301;SDS011;9785;59.362;12.152;2024-03-25T06:51:00;8.33;;;3.70;;
19301;SDS011;9785;59.362;12.152;2024-03-25T06:53:27;6.30;;;2.50;;
19301;SDS011;9785;59.362;12.152;2024-03-25T06:55:54;6.57;;;3.47;;
19301;SDS011;9785;59.362;12.152;2024-03-25T06:58:21;9.90;;;4.47;;
19301;SDS011;9785;59.362;12.152;2024-03-25T07:00:50;11.67;;;5.63;;
19301;SDS011;9785;59.362;12.152;2024-03-25T07:03:16;11.10;;;5.00;;
19301;SDS011;9785;59.362;12.152;2024-03-25T07:05:44;8.10;;;4.17;;
19301;SDS011;9785;59.362;12.152;2024-03-25T07:08:11;2.53;;;2.17;;
19301;SDS011;9785;59.362;12.152;2024-03-25T07:10:37;2.23;;;1.90;;
19301;SDS011;9785;59.362;12.152;2024-03-25T07:13:04;3.60;;;2.03;;
19301;SDS011;9785;59.362;12.152;2024-03-25T07:15:31;2.60;;;1.90;;
19301;SDS011;9785;59.362;12.152;2024-03-25T07:17:59;2.27;;;1.60;;
19301;SDS011;9785;59.362;12.152;2024-03-25T07:20:25;2.20;;;1.80;;
19301;SDS011;9785;59.362;12.152;2024-03-25T07:22:52;1.73;;;1.63;;
19301;SDS011;9785;59.362;12.152;2024-03-25T07:25:18;2.23;;;2.03;;
19301;SDS011;9785;59.362;12.152;2024-03-25T07:27:45;4.03;;;2.00;;
19301;SDS011;9785;59.362;12.152;2024-03-25T07:30:12;2.17;;;1.80;;
19301;SDS011;9785;59.362;12.152;2024-03-25T07:32:38;2.17;;;1.80;;
19301;SDS011;9785;59.362;12.152;2024-03-25T07:35:06;1.70;;;1.53;;
19301;SDS011;9785;59.362;12.152;2024-03-25T07:37:33;3.47;;;1.60;;
19301;SDS011;9785;59.362;12.152;2024-03-25T07:40:00;1.93;;;1.73;;
19301;SDS011;9785;59.362;12.152;2024-03-25T07:42:26;1.67;;;1.57;;
19301;SDS011;9785;59.362;12.152;2024-03-25T07:44:53;1.73;;;1.47;;
19301;SDS011;9785;59.362;12.152;2024-03-25T07:47:19;1.50;;;1.40;;
19301;SDS011;9785;59.362;12.152;2024-03-25T07:49:46;2.13;;;1.40;;
19301;SDS011;9785;59.362;12.152;2024-03-25T07:52:14;1.50;;;1.40;;
19301;SDS011;9785;59.362;12.152;2024-03-25T07:54:40;3.33;;;1.40;;
19301;SDS011;9785;59.362;12.152;2024-03-25T07:57:07;2.90;;;1.70;;
19301;SDS011;9785;59.362;12.152;2024-03-25T07:59:33;1.53;;;1.37;;
19301;SDS011;9785;59.362;12.152;2024-03-25T08:02:00;1.37;;;1.27;;
19301;SDS011;9785;59.362;12.152;2024-03-25T08:04:26;0.97;;;0.97;;
19301;SDS011;9785;59.362;12.152;2024-03-25T08:06:53;2.50;;;1.37;;
19301;SDS011;9785;59.362;12.152;2024-03-25T08:09:21;1.20;;;1.20;;
19301;SDS011;9785;59.362;12.152;2024-03-25T08:11:47;3.03;;;1.37;;
19301;SDS011;9785;59.362;12.152;2024-03-25T08:14:14;1.37;;;1.03;;
19301;SDS011;9785;59.362;12.152;2024-03-25T08:16:41;1.20;;;1.10;;
19301;SDS011;9785;59.362;12.152;2024-03-25T08:19:07;1.03;;;1.03;;
19301;SDS011;9785;59.362;12.152;2024-03-25T08:21:34;1.00;;;1.00;;
19301;SDS011;9785;59.362;12.152;2024-03-25T08:24:00;1.13;;;0.63;;
19301;SDS011;9785;59.362;12.152;2024-03-25T08:26:28;0.70;;;0.70;;
19301;SDS011;9785;59.362;12.152;2024-03-25T08:28:55;0.80;;;0.80;;
19301;SDS011;9785;59.362;12.152;2024-03-25T08:31:21;0.57;;;0.57;;
19301;SDS011;9785;59.362;12.152;2024-03-25T08:33:48;0.43;;;0.43;;
19301;SDS011;9785;59.362;12.152;2024-03-25T08:36:15;0.50;;;0.50;;
19301;SDS011;9785;59.362;12.152;2024-03-25T08:38:41;0.40;;;0.40;;
19301;SDS011;9785;59.362;12.152;2024-03-25T08:41:08;0.50;;;0.50;;
19301;SDS011;9785;59.362;12.152;2024-03-25T08:43:36;0.40;;;0.40;;
19301;SDS011;9785;59.362;12.152;2024-03-25T08:46:02;0.40;;;0.40;;
19301;SDS011;9785;59.362;12.152;2024-03-25T08:48:29;0.20;;;0.20;;
19301;SDS011;9785;59.362;12.152;2024-03-25T08:50:55;0.40;;;0.40;;
19301;SDS011;9785;59.362;12.152;2024-03-25T08:53:22;0.30;;;0.30;;
19301;SDS011;9785;59.362;12.152;2024-03-25T08:55:48;0.80;;;0.80;;
19301;SDS011;9785;59.362;12.152;2024-03-25T08:58:15;1.90;;;1.23;;
19301;SDS011;9785;59.362;12.152;2024-03-25T09:00:43;1.03;;;0.80;;
19301;SDS011;9785;59.362;12.152;2024-03-25T09:03:10;0.50;;;0.50;;
19301;SDS011;9785;59.362;12.152;2024-03-25T09:05:36;0.70;;;0.70;;
19301;SDS011;9785;59.362;12.152;2024-03-25T09:08:03;0.40;;;0.40;;
19301;SDS011;9785;59.362;12.152;2024-03-25T09:10:30;0.30;;;0.30;;
19301;SDS011;9785;59.362;12.152;2024-03-25T09:13:15;0.30;;;0.30;;
19301;SDS011;9785;59.362;12.152;2024-03-25T09:15:41;0.20;;;0.20;;
19301;SDS011;9785;59.362;12.152;2024-03-25T09:18:09;0.30;;;0.30;;
19301;SDS011;9785;59.362;12.152;2024-03-25T09:20:36;0.20;;;0.10;;
19301;SDS011;9785;59.362;12.152;2024-03-25T09:23:03;0.87;;;0.20;;
19301;SDS011;9785;59.362;12.152;2024-03-25T09:25:29;0.10;;;0.10;;
19301;SDS011;9785;59.362;12.152;2024-03-25T09:27:56;0.10;;;0.10;;
19301;SDS011;9785;59.362;12.152;2024-03-25T09:30:23;0.50;;;0.50;;
19301;SDS011;9785;59.362;12.152;2024-03-25T09:32:49;0.60;;;0.60;;
19301;SDS011;9785;59.362;12.152;2024-03-25T09:35:17;0.60;;;0.60;;
19301;SDS011;9785;59.362;12.152;2024-03-25T09:37:44;0.40;;;0.40;;
19301;SDS011;9785;59.362;12.152;2024-03-25T09:40:11;0.30;;;0.30;;
19301;SDS011;9785;59.362;12.152;2024-03-25T09:42:40;0.43;;;0.40;;
19301;SDS011;9785;59.362;12.152;2024-03-25T09:45:08;0.20;;;0.20;;
19301;SDS011;9785;59.362;12.152;2024-03-25T09:47:35;0.33;;;0.33;;
19301;SDS011;9785;59.362;12.152;2024-03-25T09:50:04;0.40;;;0.40;;
19301;SDS011;9785;59.362;12.152;2024-03-25T09:52:34;0.20;;;0.20;;
19301;SDS011;9785;59.362;12.152;2024-03-25T09:55:00;0.17;;;0.17;;
19301;SDS011;9785;59.362;12.152;2024-03-25T09:57:27;0.37;;;0.37;;
19301;SDS011;9785;59.362;12.152;2024-03-25T09:59:54;0.20;;;0.20;;
19301;SDS011;9785;59.362;12.152;2024-03-25T10:02:21;0.27;;;0.27;;
19301;SDS011;9785;59.362;12.152;2024-03-25T10:04:48;0.20;;;0.20;;
19301;SDS011;9785;59.362;12.152;2024-03-25T10:07:21;0.23;;;0.23;;
19301;SDS011;9785;59.362;12.152;2024-03-25T10:09:49;0.40;;;0.40;;
19301;SDS011;9785;59.362;12.152;2024-03-25T10:12:15;0.30;;;0.30;;
19301;SDS011;9785;59.362;12.152;2024-03-25T10:14:42;0.27;;;0.27;;
19301;SDS011;9785;59.362;12.152;2024-03-25T10:17:09;0.20;;;0.20;;
19301;SDS011;9785;59.362;12.152;2024-03-25T10:19:35;0.30;;;0.30;;
19301;SDS011;9785;59.362;12.152;2024-03-25T10:22:03;0.13;;;0.13;;
19301;SDS011;9785;59.362;12.152;2024-03-25T10:24:36;0.20;;;0.20;;
19301;SDS011;9785;59.362;12.152;2024-03-25T10:27:04;0.10;;;0.10;;
19301;SDS011;9785;59.362;12.152;2024-03-25T10:29:30;0.10;;;0.10;;
19301;SDS011;9785;59.362;12.152;2024-03-25T10:32:00;0.23;;;0.23;;
19301;SDS011;9785;59.362;12.152;2024-03-25T10:34:27;0.30;;;0.30;;
19301;SDS011;9785;59.362;12.152;2024-03-25T10:36:56;0.30;;;0.30;;
19301;SDS011;9785;59.362;12.152;2024-03-25T10:39:24;0.10;;;0.10;;
19301;SDS011;9785;59.362;12.152;2024-03-25T10:41:53;0.10;;;0.10;;
19301;SDS011;9785;59.362;12.152;2024-03-25T10:44:23;0.20;;;0.20;;
19301;SDS011;9785;59.362;12.152;2024-03-25T10:46:50;0.10;;;0.10;;
19301;SDS011;9785;59.362;12.152;2024-03-25T10:49:21;0.30;;;0.30;;
19301;SDS011;9785;59.362;12.152;2024-03-25T10:51:48;0.13;;;0.10;;
19301;SDS011;9785;59.362;12.152;2024-03-25T10:54:16;0.20;;;0.20;;
19301;SDS011;9785;59.362;12.152;2024-03-25T10:56:43;0.20;;;0.20;;
19301;SDS011;9785;59.362;12.152;2024-03-25T10:59:10;0.67;;;0.10;;
19301;SDS011;9785;59.362;12.152;2024-03-25T11:01:38;0.20;;;0.20;;
19301;SDS011;9785;59.362;12.152;2024-03-25T11:04:04;0.10;;;0.10;;
19301;SDS011;9785;59.362;12.152;2024-03-25T11:06:31;0.20;;;0.20;;
19301;SDS011;9785;59.362;12.152;2024-03-25T11:08:58;0.10;;;0.10;;
19301;SDS011;9785;59.362;12.152;2024-03-25T11:11:30;0.27;;;0.27;;
19301;SDS011;9785;59.362;12.152;2024-03-25T11:13:57;0.20;;;0.20;;
19301;SDS011;9785;59.362;12.152;2024-03-25T11:16:26;0.10;;;0.10;;
19301;SDS011;9785;59.362;12.152;2024-03-25T11:18:59;0.47;;;0.23;;
19301;SDS011;9785;59.362;12.152;2024-03-25T11:21:26;0.20;;;0.20;;
19301;SDS011;9785;59.362;12.152;2024-03-25T11:23:53;0.20;;;0.20;;
19301;SDS011;9785;59.362;12.152;2024-03-25T11:26:20;0.20;;;0.20;;
19301;SDS011;9785;59.362;12.152;2024-03-25T11:28:47;0.00;;;0.00;;
19301;SDS011;9785;59.362;12.152;2024-03-25T11:31:13;0.33;;;0.33;;
19301;SDS011;9785;59.362;12.152;2024-03-25T11:33:40;0.20;;;0.20;;
19301;SDS011;9785;59.362;12.152;2024-03-25T11:36:09;0.30;;;0.30;;
19301;SDS011;9785;59.362;12.152;2024-03-25T11:38:36;0.23;;;0.23;;
19301;SDS011;9785;59.362;12.152;2024-03-25T11:41:03;0.20;;;0.20;;
19301;SDS011;9785;59.362;12.152;2024-03-25T11:43:30;0.20;;;0.20;;
19301;SDS011;9785;59.362;12.152;2024-03-25T11:45:56;0.33;;;0.33;;
19301;SDS011;9785;59.362;12.152;2024-03-25T11:48:23;0.20;;;0.20;;
19301;SDS011;9785;59.362;12.152;2024-03-25T11:50:50;0.70;;;0.70;;
19301;SDS011;9785;59.362;12.152;2024-03-25T11:53:17;0.20;;;0.20;;
19301;SDS011;9785;59.362;12.152;2024-03-25T11:55:45;0.17;;;0.17;;
19301;SDS011;9785;59.362;12.152;2024-03-25T11:58:12;0.20;;;0.20;;
19301;SDS011;9785;59.362;12.152;2024-03-25T12:00:43;0.30;;;0.30;;
19301;SDS011;9785;59.362;12.152;2024-03-25T12:03:09;0.20;;;0.20;;
19301;SDS011;9785;59.362;12.152;2024-03-25T12:05:36;0.30;;;0.30;;
19301;SDS011;9785;59.362;12.152;2024-03-25T12:08:03;0.40;;;0.40;;
19301;SDS011;9785;59.362;12.152;2024-03-25T12:10:32;0.20;;;0.20;;
19301;SDS011;9785;59.362;12.152;2024-03-25T12:13:19;0.30;;;0.30;;
19301;SDS011;9785;59.362;12.152;2024-03-25T12:15:45;0.33;;;0.30;;
19301;SDS011;9785;59.362;12.152;2024-03-25T12:18:13;0.20;;;0.20;;
19301;SDS011;9785;59.362;12.152;2024-03-25T12:20:39;0.30;;;0.30;;
19301;SDS011;9785;59.362;12.152;2024-03-25T12:23:06;0.20;;;0.20;;
19301;SDS011;9785;59.362;12.152;2024-03-25T12:25:34;0.20;;;0.20;;
19301;SDS011;9785;59.362;12.152;2024-03-25T12:28:01;0.10;;;0.10;;
19301;SDS011;9785;59.362;12.152;2024-03-25T12:30:27;0.10;;;0.10;;
19301;SDS011;9785;59.362;12.152;2024-03-25T12:32:54;0.10;;;0.10;;
19301;SDS011;9785;59.362;12.152;2024-03-25T12:35:20;0.10;;;0.10;;
19301;SDS011;9785;59.362;12.152;2024-03-25T12:37:47;0.10;;;0.10;;
19301;SDS011;9785;59.362;12.152;2024-03-25T12:40:24;0.60;;;0.30;;
19301;SDS011;9785;59.362;12.152;2024-03-25T12:42:53;0.10;;;0.10;;
19301;SDS011;9785;59.362;12.152;2024-03-25T12:45:19;0.10;;;0.10;;
19301;SDS011;9785;59.362;12.152;2024-03-25T12:47:46;0.20;;;0.20;;
19301;SDS011;9785;59.362;12.152;2024-03-25T12:50:12;0.20;;;0.20;;
19301;SDS011;9785;59.362;12.152;2024-03-25T12:52:39;0.20;;;0.20;;
19301;SDS011;9785;59.362;12.152;2024-03-25T12:55:06;0.20;;;0.20;;
19301;SDS011;9785;59.362;12.152;2024-03-25T12:57:32;0.20;;;0.20;;
19301;SDS011;9785;59.362;12.152;2024-03-25T13:00:00;0.10;;;0.10;;
19301;SDS011;9785;59.362;12.152;2024-03-25T13:02:27;0.20;;;0.20;;
19301;SDS011;9785;59.362;12.152;2024-03-25T13:04:54;0.13;;;0.13;;
19301;SDS011;9785;59.362;12.152;2024-03-25T13:07:20;0.20;;;0.20;;
19301;SDS011;9785;59.362;12.152;2024-03-25T13:09:47;0.10;;;0.10;;
19301;SDS011;9785;59.362;12.152;2024-03-25T13:12:13;0.20;;;0.20;;
19301;SDS011;9785;59.362;12.152;2024-03-25T13:14:40;0.20;;;0.20;;
19301;SDS011;9785;59.362;12.152;2024-03-25T13:17:08;0.10;;;0.10;;
19301;SDS011;9785;59.362;12.152;2024-03-25T13:19:34;0.63;;;0.40;;
19301;SDS011;9785;59.362;12.152;2024-03-25T13:22:01;0.30;;;0.30;;
19301;SDS011;9785;59.362;12.152;2024-03-25T13:24:27;2.33;;;0.40;;
19301;SDS011;9785;59.362;12.152;2024-03-25T13:26:54;0.40;;;0.30;;
19301;SDS011;9785;59.362;12.152;2024-03-25T13:29:20;0.37;;;0.37;;
19301;SDS011;9785;59.362;12.152;2024-03-25T13:31:47;0.30;;;0.30;;
19301;SDS011;9785;59.362;12.152;2024-03-25T13:34:15;0.40;;;0.40;;
19301;SDS011;9785;59.362;12.152;2024-03-25T13:36:41;0.63;;;0.40;;
19301;SDS011;9785;59.362;12.152;2024-03-25T13:39:08;0.37;;;0.37;;
19301;SDS011;9785;59.362;12.152;2024-03-25T13:41:34;1.60;;;0.20;;
19301;SDS011;9785;59.362;12.152;2024-03-25T13:44:01;0.20;;;0.20;;
19301;SDS011;9785;59.362;12.152;2024-03-25T13:46:28;0.43;;;0.27;;
19301;SDS011;9785;59.362;12.152;2024-03-25T13:48:54;0.73;;;0.20;;
19301;SDS011;9785;59.362;12.152;2024-03-25T13:51:22;0.40;;;0.40;;
19301;SDS011;9785;59.362;12.152;2024-03-25T13:53:49;0.17;;;0.17;;
19301;SDS011;9785;59.362;12.152;2024-03-25T13:56:15;0.40;;;0.30;;
19301;SDS011;9785;59.362;12.152;2024-03-25T13:58:42;0.50;;;0.50;;
19301;SDS011;9785;59.362;12.152;2024-03-25T14:01:08;0.50;;;0.50;;
19301;SDS011;9785;59.362;12.152;2024-03-25T14:03:35;1.60;;;0.60;;
19301;SDS011;9785;59.362;12.152;2024-03-25T14:06:01;0.50;;;0.50;;
19301;SDS011;9785;59.362;12.152;2024-03-25T14:08:29;1.03;;;0.60;;
19301;SDS011;9785;59.362;12.152;2024-03-25T14:10:56;0.50;;;0.50;;
19301;SDS011;9785;59.362;12.152;2024-03-25T14:13:24;1.53;;;0.70;;
19301;SDS011;9785;59.362;12.152;2024-03-25T14:15:51;0.47;;;0.40;;
19301;SDS011;9785;59.362;12.152;2024-03-25T14:18:17;0.60;;;0.60;;
19301;SDS011;9785;59.362;12.152;2024-03-25T14:20:44;0.50;;;0.50;;
19301;SDS011;9785;59.362;12.152;2024-03-25T14:23:11;0.60;;;0.60;;
19301;SDS011;9785;59.362;12.152;2024-03-25T14:25:39;1.37;;;0.97;;
19301;SDS011;9785;59.362;12.152;2024-03-25T14:28:06;0.70;;;0.70;;
19301;SDS011;9785;59.362;12.152;2024-03-25T14:30:33;0.60;;;0.60;;
19301;SDS011;9785;59.362;12.152;2024-03-25T14:32:59;1.13;;;0.60;;
19301;SDS011;9785;59.362;12.152;2024-03-25T14:35:26;0.60;;;0.60;;
19301;SDS011;9785;59.362;12.152;2024-03-25T14:37:52;0.57;;;0.50;;
19301;SDS011;9785;59.362;12.152;2024-03-25T14:40:19;0.70;;;0.70;;
19301;SDS011;9785;59.362;12.152;2024-03-25T14:42:47;0.90;;;0.60;;
19301;SDS011;9785;59.362;12.152;2024-03-25T14:45:13;0.60;;;0.60;;
19301;SDS011;9785;59.362;12.152;2024-03-25T14:47:40;1.37;;;0.77;;